createdAt,value
2019-04-05T00:00:16.511Z,15.00
2019-04-05T00:02:46.138Z,15.00
2019-04-05T00:05:16.319Z,14.90
2019-04-05T00:07:45.899Z,14.90
2019-04-05T00:10:15.649Z,14.90
2019-04-05T00:12:45.162Z,14.90
2019-04-05T00:15:16.170Z,14.80
2019-04-05T00:17:45.838Z,14.60
2019-04-05T00:20:16.056Z,14.70
2019-04-05T00:22:45.523Z,14.70
2019-04-05T00:25:15.012Z,14.80
2019-04-05T00:27:44.553Z,14.70
2019-04-05T00:30:14.350Z,14.60
2019-04-05T00:32:44.077Z,14.70
2019-04-05T00:35:13.640Z,14.70
2019-04-05T00:37:43.093Z,14.80
2019-04-05T00:40:13.106Z,14.70
2019-04-05T00:42:42.558Z,14.70
2019-04-05T00:45:12.258Z,14.80
2019-04-05T00:47:41.746Z,14.90
2019-04-05T00:50:12.660Z,14.90
2019-04-05T00:52:42.212Z,14.80
2019-04-05T00:55:12.240Z,14.80
2019-04-05T00:57:42.085Z,14.80
2019-04-05T01:00:12.897Z,14.80
2019-04-05T01:02:42.369Z,14.80
2019-04-05T01:05:11.987Z,14.70
2019-04-05T01:07:41.721Z,14.70
2019-04-05T01:10:11.551Z,14.70
2019-04-05T01:12:41.765Z,14.70
2019-04-05T01:15:12.912Z,14.70
2019-04-05T01:17:42.738Z,14.60
2019-04-05T01:20:12.741Z,14.50
2019-04-05T01:22:44.549Z,14.30
2019-04-05T01:25:14.654Z,14.30
2019-04-05T01:27:44.279Z,14.30
2019-04-05T01:30:15.113Z,14.30
2019-04-05T01:32:44.832Z,14.40
2019-04-05T01:35:14.707Z,14.20
2019-04-05T01:37:44.723Z,14.30
2019-04-05T01:40:14.543Z,14.20
2019-04-05T01:42:44.360Z,14.10
2019-04-05T01:45:14.219Z,14.10
2019-04-05T01:47:43.755Z,14.10
2019-04-05T01:50:13.681Z,14.10
2019-04-05T01:52:43.644Z,14.00
2019-04-05T01:55:13.297Z,14.00
2019-04-05T01:57:42.767Z,14.10
2019-04-05T02:00:12.703Z,14.00
2019-04-05T02:02:42.433Z,14.10
2019-04-05T02:05:12.571Z,14.10
2019-04-05T02:07:42.279Z,14.00
2019-04-05T02:10:12.444Z,14.00
2019-04-05T02:12:44.036Z,14.00
2019-04-05T02:15:25.140Z,14.10
2019-04-05T02:17:55.016Z,14.10
2019-04-05T02:20:24.826Z,14.00
2019-04-05T02:22:54.542Z,14.00
2019-04-05T02:25:24.176Z,14.00
2019-04-05T02:27:53.710Z,13.90
2019-04-05T02:30:23.469Z,13.90
2019-04-05T02:32:53.175Z,13.80
2019-04-05T02:35:22.827Z,13.70
2019-04-05T02:37:52.449Z,13.70
2019-04-05T02:40:25.165Z,13.60
2019-04-05T02:42:58.305Z,13.40
2019-04-05T02:45:31.519Z,13.40
2019-04-05T02:48:04.560Z,13.50
2019-04-05T02:50:37.263Z,13.40
2019-04-05T02:53:09.156Z,13.50
2019-04-05T02:55:40.891Z,13.50
2019-04-05T02:58:12.224Z,13.40
2019-04-05T03:00:42.985Z,13.30
2019-04-05T03:03:13.513Z,13.30
2019-04-05T03:05:44.508Z,13.40
2019-04-05T03:08:14.909Z,13.30
2019-04-05T03:10:56.121Z,13.30
2019-04-05T03:13:28.991Z,13.30
2019-04-05T03:16:01.833Z,13.40
2019-04-05T03:18:33.400Z,13.40
2019-04-05T03:21:06.309Z,13.40
2019-04-05T03:23:39.273Z,13.30
2019-04-05T03:26:12.007Z,13.20
2019-04-05T03:28:43.097Z,13.10
2019-04-05T03:31:14.070Z,13.10
2019-04-05T03:33:44.325Z,12.90
2019-04-05T03:36:13.869Z,12.80
2019-04-05T03:38:43.503Z,13.00
2019-04-05T03:41:15.647Z,13.00
2019-04-05T03:43:46.366Z,13.10
2019-04-05T03:46:15.935Z,13.00
2019-04-05T03:48:46.689Z,12.90
2019-04-05T03:51:16.505Z,12.80
2019-04-05T03:53:46.335Z,12.80
2019-04-05T03:56:16.117Z,12.80
2019-04-05T03:58:46.345Z,12.80
2019-04-05T04:01:15.903Z,12.80
2019-04-05T04:03:45.482Z,12.80
2019-04-05T04:06:15.465Z,12.80
2019-04-05T04:08:45.060Z,12.80
2019-04-05T04:11:14.722Z,12.80
2019-04-05T04:13:44.408Z,12.80
2019-04-05T04:16:14.453Z,12.70
2019-04-05T04:18:44.368Z,12.60
2019-04-05T04:21:40.788Z,12.60
2019-04-05T04:24:10.826Z,12.50
2019-04-05T04:26:41.542Z,12.50
2019-04-05T04:29:11.930Z,12.50
2019-04-05T04:31:41.729Z,12.60
2019-04-05T04:34:12.351Z,12.50
2019-04-05T04:36:42.321Z,12.40
2019-04-05T04:39:12.205Z,12.50
2019-04-05T04:41:42.290Z,12.50
2019-04-05T04:44:12.005Z,12.20
2019-04-05T04:46:41.849Z,12.10
2019-04-05T04:49:11.643Z,12.20
2019-04-05T04:51:41.539Z,12.10
2019-04-05T04:54:11.645Z,12.20
2019-04-05T04:56:41.460Z,12.30
2019-04-05T04:59:11.101Z,12.30
2019-04-05T05:01:40.661Z,12.30
2019-04-05T05:04:10.518Z,12.30
2019-04-05T05:06:40.610Z,12.20
2019-04-05T05:09:10.370Z,12.30
2019-04-05T05:11:40.085Z,12.20
2019-04-05T05:14:09.743Z,12.20
2019-04-05T05:16:39.603Z,12.20
2019-04-05T05:19:09.540Z,12.30
2019-04-05T05:21:39.165Z,12.30
2019-04-05T05:24:08.856Z,12.30
2019-04-05T05:26:38.805Z,12.20
2019-04-05T05:29:08.791Z,12.20
2019-04-05T05:31:38.502Z,12.20
2019-04-05T05:34:08.395Z,12.10
2019-04-05T05:36:39.048Z,12.00
2019-04-05T05:39:08.892Z,12.10
2019-04-05T05:41:38.564Z,12.20
2019-04-05T05:44:08.211Z,12.10
2019-04-05T05:46:37.968Z,12.20
2019-04-05T05:49:07.703Z,12.20
2019-04-05T05:51:37.671Z,12.30
2019-04-05T05:54:07.156Z,12.20
2019-04-05T05:56:36.774Z,12.30
2019-04-05T05:59:06.503Z,12.30
2019-04-05T06:01:36.337Z,12.20
2019-04-05T06:04:05.991Z,12.10
2019-04-05T06:06:35.572Z,12.30
2019-04-05T06:09:07.321Z,12.40
2019-04-05T06:11:36.815Z,12.40
2019-04-05T06:14:06.485Z,12.40
2019-04-05T06:16:45.801Z,12.40
2019-04-05T06:19:07.451Z,12.40
2019-04-05T06:21:37.009Z,12.20
2019-04-05T06:24:06.647Z,12.10
2019-04-05T06:26:36.451Z,12.10
2019-04-05T06:29:06.157Z,12.00
2019-04-05T06:31:35.747Z,12.00
2019-04-05T06:34:05.517Z,11.90
2019-04-05T06:36:35.024Z,11.90
2019-04-05T06:39:07.097Z,11.70
2019-04-05T06:41:36.775Z,11.80
2019-04-05T06:44:06.529Z,11.70
2019-04-05T06:46:35.997Z,11.50
2019-04-05T06:49:05.733Z,11.50
2019-04-05T06:51:35.360Z,11.30
2019-04-05T06:54:05.129Z,11.20
2019-04-05T06:56:34.685Z,11.30
2019-04-05T06:59:04.686Z,11.20
2019-04-05T07:01:34.263Z,11.00
2019-04-05T07:04:04.085Z,10.80
2019-04-05T07:06:33.659Z,11.10
2019-04-05T07:09:05.127Z,11.30
2019-04-05T07:11:34.815Z,11.30
2019-04-05T07:14:04.363Z,11.30
2019-04-05T07:16:34.346Z,11.40
2019-04-05T07:19:04.038Z,11.30
2019-04-05T07:21:33.696Z,11.30
2019-04-05T07:24:03.171Z,11.50
2019-04-05T07:26:32.728Z,11.50
2019-04-05T07:29:02.324Z,11.40
2019-04-05T07:31:31.921Z,11.40
2019-04-05T07:34:01.565Z,11.20
2019-04-05T07:36:31.246Z,11.30
2019-04-05T07:39:00.718Z,11.50
2019-04-05T07:41:31.814Z,11.50
2019-04-05T07:44:01.591Z,11.40
2019-04-05T07:46:31.317Z,11.40
2019-04-05T07:49:00.921Z,11.50
2019-04-05T07:51:30.500Z,11.20
2019-04-05T07:54:00.037Z,11.00
2019-04-05T07:56:29.577Z,11.10
2019-04-05T07:58:59.274Z,10.90
2019-04-05T08:01:30.223Z,10.80
2019-04-05T08:03:59.937Z,10.80
2019-04-05T08:06:31.003Z,10.90
2019-04-05T08:09:07.785Z,11.10
2019-04-05T08:11:38.747Z,10.90
2019-04-05T08:14:10.001Z,11.10
2019-04-05T08:16:39.632Z,11.10
2019-04-05T08:19:09.247Z,11.20
2019-04-05T08:21:39.752Z,11.20
2019-04-05T08:24:09.397Z,11.20
2019-04-05T08:26:38.981Z,11.10
2019-04-05T08:29:08.627Z,11.00
2019-04-05T08:31:38.209Z,11.00
2019-04-05T08:34:08.141Z,11.00
2019-04-05T08:36:37.715Z,11.20
2019-04-05T08:39:08.494Z,11.50
2019-04-05T08:41:38.228Z,11.40
2019-04-05T08:44:07.992Z,11.50
2019-04-05T08:46:37.944Z,11.50
2019-04-05T08:49:11.463Z,11.50
2019-04-05T08:51:40.601Z,11.50
2019-04-05T08:54:10.261Z,11.50
2019-04-05T08:56:40.589Z,11.30
2019-04-05T08:59:10.211Z,11.50
2019-04-05T09:01:40.112Z,11.50
2019-04-05T09:04:09.742Z,11.40
2019-04-05T09:06:40.494Z,11.50
2019-04-05T09:09:10.451Z,11.30
2019-04-05T09:11:40.208Z,11.30
2019-04-05T09:14:09.787Z,11.30
2019-04-05T09:16:39.300Z,11.20
2019-04-05T09:19:08.843Z,11.20
2019-04-05T09:21:40.391Z,11.20
2019-04-05T09:24:09.814Z,11.20
2019-04-05T09:26:39.473Z,11.20
2019-04-05T09:29:09.556Z,11.20
2019-04-05T09:31:39.343Z,11.40
2019-04-05T09:34:09.043Z,11.40
2019-04-05T09:36:38.660Z,11.30
2019-04-05T09:39:15.330Z,11.20
2019-04-05T09:41:42.100Z,11.20
2019-04-05T09:44:11.871Z,11.20
2019-04-05T09:46:47.944Z,11.40
2019-04-05T09:49:12.901Z,11.40
2019-04-05T09:51:42.527Z,11.60
2019-04-05T09:54:12.225Z,11.70
2019-04-05T09:56:44.087Z,11.70
2019-04-05T09:59:13.759Z,11.80
2019-04-05T10:01:43.266Z,11.70
2019-04-05T10:04:12.937Z,11.60
2019-04-05T10:06:42.633Z,11.60
2019-04-05T10:09:12.614Z,11.50
2019-04-05T10:11:42.513Z,11.50
2019-04-05T10:14:12.004Z,11.70
2019-04-05T10:16:41.722Z,11.70
2019-04-05T10:19:11.249Z,11.80
2019-04-05T10:21:40.836Z,11.90
2019-04-05T10:24:10.655Z,11.80
2019-04-05T10:26:40.399Z,11.80
2019-04-05T10:29:09.992Z,11.80
2019-04-05T10:31:39.605Z,11.80
2019-04-05T10:34:09.180Z,11.80
2019-04-05T10:36:38.734Z,11.90
2019-04-05T10:39:10.438Z,12.00
2019-04-05T10:41:40.087Z,12.00
2019-04-05T10:44:12.924Z,12.10
2019-04-05T10:46:42.400Z,12.10
2019-04-05T10:49:14.942Z,12.20
2019-04-05T10:51:43.297Z,12.20
2019-04-05T10:54:14.826Z,12.30
2019-04-05T10:56:44.239Z,12.40
2019-04-05T10:59:13.825Z,12.60
2019-04-05T11:01:43.687Z,12.60
2019-04-05T11:04:13.293Z,12.80
2019-04-05T11:06:42.996Z,12.90
2019-04-05T11:09:12.469Z,12.90
2019-04-05T11:11:42.010Z,12.90
2019-04-05T11:14:13.968Z,13.20
2019-04-05T11:16:42.820Z,13.50
2019-04-05T11:19:13.313Z,13.50
2019-04-05T11:21:42.995Z,13.70
2019-04-05T11:24:13.940Z,13.90
2019-04-05T11:26:43.411Z,14.10
2019-04-05T11:29:14.454Z,14.00
2019-04-05T11:31:56.216Z,13.80
2019-04-05T11:34:15.477Z,13.70
2019-04-05T11:36:45.527Z,13.90
2019-04-05T11:39:15.161Z,14.10
2019-04-05T11:41:45.766Z,14.20
2019-04-05T11:44:15.507Z,14.10
2019-04-05T11:46:49.106Z,13.90
2019-04-05T11:49:17.585Z,13.80
2019-04-05T11:51:48.060Z,13.70
2019-04-05T11:54:18.493Z,13.70
2019-04-05T11:56:48.058Z,13.60
2019-04-05T11:59:17.521Z,13.60
2019-04-05T12:02:05.698Z,13.60
2019-04-05T12:04:35.235Z,13.60
2019-04-05T12:07:04.988Z,13.70
2019-04-05T12:09:34.684Z,13.80
2019-04-05T12:12:04.263Z,13.80
2019-04-05T12:14:36.372Z,13.80
2019-04-05T12:17:05.564Z,13.90
2019-04-05T12:19:38.114Z,13.80
2019-04-05T12:22:09.176Z,13.80
2019-04-05T12:24:38.513Z,13.70
2019-04-05T12:27:09.115Z,13.70
2019-04-05T12:29:38.592Z,13.70
2019-04-05T12:32:08.063Z,13.80
2019-04-05T12:34:37.628Z,13.90
2019-04-05T12:37:08.374Z,13.90
2019-04-05T12:39:37.888Z,13.80
2019-04-05T12:42:07.519Z,13.80
2019-04-05T12:44:37.064Z,13.90
2019-04-05T12:47:19.114Z,13.90
2019-04-05T12:49:48.793Z,14.00
2019-04-05T12:52:23.014Z,14.00
2019-04-05T12:54:54.111Z,14.00
2019-04-05T12:57:20.675Z,14.00
2019-04-05T12:59:51.489Z,14.00
2019-04-05T13:02:33.085Z,14.00
2019-04-05T13:04:52.551Z,14.10
2019-04-05T13:07:22.792Z,14.10
2019-04-05T13:09:55.060Z,14.10
2019-04-05T13:12:26.233Z,14.10
2019-04-05T13:15:00.129Z,14.10
2019-04-05T13:17:26.579Z,14.20
2019-04-05T13:19:56.012Z,14.20
2019-04-05T13:22:25.684Z,14.20
2019-04-05T13:24:55.116Z,14.20
2019-04-05T13:27:24.971Z,14.20
2019-04-05T13:29:54.448Z,14.20
2019-04-05T13:32:24.325Z,14.20
2019-04-05T13:34:55.722Z,14.30
2019-04-05T13:37:25.949Z,14.30
2019-04-05T13:39:55.484Z,14.30
2019-04-05T13:42:25.106Z,14.30
2019-04-05T13:44:54.567Z,14.40
2019-04-05T13:47:24.165Z,14.40
2019-04-05T13:49:53.668Z,14.40
2019-04-05T13:52:23.126Z,14.40
2019-04-05T13:54:52.570Z,14.50
2019-04-05T13:57:21.996Z,14.50
2019-04-05T13:59:51.462Z,14.50
2019-04-05T14:02:21.605Z,14.50
2019-04-05T14:04:53.629Z,14.50
2019-04-05T14:07:24.530Z,14.50
2019-04-05T14:09:53.852Z,14.50
2019-04-05T14:12:23.288Z,14.50
2019-04-05T14:14:52.780Z,14.50
2019-04-05T14:17:22.204Z,14.60
2019-04-05T14:19:51.707Z,14.60
2019-04-05T14:22:22.528Z,14.60
2019-04-05T14:24:56.432Z,14.50
2019-04-05T14:27:23.826Z,14.50
2019-04-05T14:29:53.256Z,14.60
2019-04-05T14:32:22.762Z,14.50
2019-04-05T14:34:54.771Z,14.60
2019-04-05T14:37:25.307Z,14.60
2019-04-05T14:40:01.571Z,14.50
2019-04-05T14:42:31.179Z,14.50
2019-04-05T14:45:00.622Z,14.60
2019-04-05T14:47:30.141Z,14.60
2019-04-05T14:50:00.976Z,14.60
2019-04-05T14:52:31.137Z,14.60
2019-04-05T14:55:01.318Z,14.50
2019-04-05T14:57:32.612Z,14.60
2019-04-05T15:00:02.034Z,14.60
2019-04-05T15:02:31.625Z,14.60
2019-04-05T15:05:01.136Z,14.60
2019-04-05T15:07:30.663Z,14.70
2019-04-05T15:10:03.379Z,14.70
2019-04-05T15:12:31.405Z,14.60
2019-04-05T15:15:00.902Z,14.60
2019-04-05T15:17:30.338Z,14.70
2019-04-05T15:19:59.754Z,14.70
2019-04-05T15:22:29.250Z,14.70
2019-04-05T15:24:58.686Z,14.70
2019-04-05T15:27:28.277Z,14.70
2019-04-05T15:29:57.724Z,14.70
2019-04-05T15:32:27.440Z,14.70
2019-04-05T15:34:58.998Z,14.70
2019-04-05T15:37:31.790Z,14.80
2019-04-05T15:40:00.446Z,14.70
2019-04-05T15:42:30.450Z,14.70
2019-04-05T15:44:59.950Z,14.80
2019-04-05T15:47:31.785Z,14.70
2019-04-05T15:50:00.703Z,14.70
2019-04-05T15:52:32.075Z,14.80
2019-04-05T15:55:01.716Z,14.80
2019-04-05T15:57:34.290Z,14.80
2019-04-05T16:00:06.622Z,14.80
2019-04-05T16:02:36.082Z,14.80
2019-04-05T16:05:06.511Z,14.80
2019-04-05T16:07:35.959Z,14.80
2019-04-05T16:10:06.398Z,14.80
2019-04-05T16:12:36.079Z,14.80
2019-04-05T16:15:06.821Z,14.80
2019-04-05T16:17:36.288Z,14.80
2019-04-05T16:20:06.935Z,14.80
2019-04-05T16:22:36.779Z,14.80
2019-04-05T16:25:07.107Z,14.80
2019-04-05T16:27:36.666Z,14.80
2019-04-05T16:30:07.533Z,14.80
2019-04-05T16:32:36.986Z,14.80
2019-04-05T16:35:06.620Z,14.80
2019-04-05T16:37:36.125Z,14.80
2019-04-05T16:40:05.999Z,14.80
2019-04-05T16:42:35.553Z,14.80
2019-04-05T16:45:06.310Z,14.80
2019-04-05T16:47:35.924Z,14.80
2019-04-05T16:50:06.224Z,14.80
2019-04-05T16:52:44.757Z,14.80
2019-04-05T16:55:07.947Z,14.80
2019-04-05T16:57:37.924Z,14.80
2019-04-05T17:00:09.213Z,14.70
2019-04-05T17:02:38.789Z,14.70
2019-04-05T17:05:08.782Z,14.70
2019-04-05T17:07:38.255Z,14.70
2019-04-05T17:10:07.947Z,14.70
2019-04-05T17:12:37.469Z,14.70
2019-04-05T17:15:07.666Z,14.70
2019-04-05T17:17:37.280Z,14.70
2019-04-05T17:20:07.331Z,14.60
2019-04-05T17:22:36.833Z,14.60
2019-04-05T17:25:06.929Z,14.60
2019-04-05T17:27:36.452Z,14.60
2019-04-05T17:30:06.493Z,14.60
2019-04-05T17:32:36.312Z,14.60
2019-04-05T17:35:06.630Z,14.60
2019-04-05T17:37:36.237Z,14.50
2019-04-05T17:40:06.667Z,14.50
2019-04-05T17:42:36.149Z,14.50
2019-04-05T17:45:06.995Z,14.50
2019-04-05T17:47:36.626Z,14.40
2019-04-05T17:50:10.397Z,14.40
2019-04-05T17:52:39.210Z,14.40
2019-04-05T17:55:08.896Z,14.40
2019-04-05T17:57:38.395Z,14.40
2019-04-05T18:00:10.330Z,14.40
2019-04-05T18:02:39.795Z,14.40
2019-04-05T18:05:09.592Z,14.30
2019-04-05T18:07:39.017Z,14.30
2019-04-05T18:10:08.760Z,14.30
2019-04-05T18:12:38.334Z,14.30
2019-04-05T18:15:07.913Z,14.30
2019-04-05T18:17:37.360Z,14.30
2019-04-05T18:20:09.638Z,14.30
2019-04-05T18:22:38.250Z,14.30
2019-04-05T18:25:07.859Z,14.30
2019-04-05T18:27:37.367Z,14.30
2019-04-05T18:30:07.559Z,14.30
2019-04-05T18:32:37.097Z,14.20
2019-04-05T18:35:06.884Z,14.20
2019-04-05T18:37:36.485Z,14.30
2019-04-05T18:40:06.370Z,14.20
2019-04-05T18:42:35.820Z,14.20
2019-04-05T18:45:06.302Z,14.20
2019-04-05T18:47:35.766Z,14.10
2019-04-05T18:50:05.867Z,14.10
2019-04-05T18:52:35.306Z,14.10
2019-04-05T18:55:04.922Z,14.10
2019-04-05T18:57:34.466Z,14.00
2019-04-05T19:00:04.718Z,14.10
2019-04-05T19:02:34.182Z,14.10
2019-04-05T19:05:04.324Z,14.10
2019-04-05T19:07:33.836Z,14.00
2019-04-05T19:10:03.412Z,14.10
2019-04-05T19:12:33.013Z,14.00
2019-04-05T19:15:02.521Z,14.00
2019-04-05T19:17:32.021Z,14.00
2019-04-05T19:20:01.470Z,14.00
2019-04-05T19:22:30.940Z,14.00
2019-04-05T19:25:00.394Z,14.00
2019-04-05T19:27:29.927Z,14.00
2019-04-05T19:29:59.398Z,14.00
2019-04-05T19:50:10.019Z,13.90
2019-04-05T19:52:39.551Z,13.90
2019-04-05T19:55:09.389Z,13.80
2019-04-05T19:57:38.864Z,13.80
2019-04-05T20:00:09.066Z,13.80
2019-04-05T20:02:38.563Z,13.80
2019-04-05T20:05:08.430Z,13.80
2019-04-05T20:07:37.916Z,13.80
2019-04-05T20:10:07.679Z,13.80
2019-04-05T20:12:37.143Z,13.80
2019-04-05T20:15:08.022Z,13.80
2019-04-05T20:17:37.565Z,13.80
2019-04-05T20:20:10.899Z,13.80
2019-04-05T20:22:40.338Z,13.80
2019-04-05T20:25:10.242Z,13.70
2019-04-05T20:27:39.756Z,13.80
2019-04-05T20:30:09.661Z,13.80
2019-04-05T20:32:39.238Z,13.70
2019-04-05T20:35:08.873Z,13.80
2019-04-05T20:37:40.042Z,13.70
2019-04-05T20:40:09.971Z,13.70
2019-04-05T20:42:39.521Z,13.80
2019-04-05T20:45:09.226Z,13.70
2019-04-05T20:47:38.687Z,13.70
2019-04-05T20:50:08.612Z,13.70
2019-04-05T20:52:38.189Z,13.70
2019-04-05T20:55:07.864Z,13.70
2019-04-05T20:57:37.315Z,13.70
2019-04-05T21:00:08.681Z,13.60
2019-04-05T21:02:38.158Z,13.60
2019-04-05T21:05:07.804Z,13.60
2019-04-05T21:07:37.273Z,13.60
2019-04-05T21:10:07.350Z,13.60
2019-04-05T21:12:36.893Z,13.60
2019-04-05T21:15:06.634Z,13.60
2019-04-05T21:17:36.109Z,13.60
2019-04-05T21:20:06.246Z,13.60
2019-04-05T21:22:35.675Z,13.60
2019-04-05T21:25:05.939Z,13.60
2019-04-05T21:27:35.380Z,13.50
2019-04-05T21:30:05.808Z,13.50
2019-04-05T21:32:35.227Z,13.50
2019-04-05T21:35:05.341Z,13.50
2019-04-05T21:37:34.829Z,13.50
2019-04-05T21:40:05.043Z,13.50
2019-04-05T21:42:34.487Z,13.50
2019-04-05T21:45:04.299Z,13.40
2019-04-05T21:47:33.751Z,13.40
2019-04-05T21:50:03.405Z,13.30
2019-04-05T21:52:32.834Z,13.40
2019-04-05T21:55:02.486Z,13.30
2019-04-05T21:57:32.078Z,13.30
2019-04-05T22:00:01.600Z,13.30
2019-04-05T22:02:31.195Z,13.30
2019-04-05T22:05:01.378Z,13.30
2019-04-05T22:07:31.037Z,13.30
2019-04-05T22:10:00.450Z,13.20
2019-04-05T22:12:29.890Z,13.20
2019-04-05T22:14:59.330Z,13.20
2019-04-05T22:17:29.002Z,13.20
2019-04-05T22:19:58.426Z,13.20
2019-04-05T22:22:27.914Z,13.10
2019-04-05T22:24:59.598Z,13.10
2019-04-05T22:27:28.510Z,13.10
2019-04-05T22:29:58.019Z,13.10
2019-04-05T22:32:27.530Z,13.10
2019-04-05T22:34:56.940Z,13.10
2019-04-05T22:37:26.468Z,13.10
2019-04-05T22:42:43.545Z,13.00
2019-04-05T22:45:13.478Z,13.00
2019-04-05T22:47:42.984Z,13.00
2019-04-05T22:50:12.800Z,13.00
2019-04-05T22:52:47.915Z,13.00
2019-04-05T22:55:17.619Z,13.00
2019-04-05T22:57:47.050Z,12.90
2019-04-05T23:00:17.057Z,12.90
2019-04-05T23:02:46.515Z,12.90
2019-04-05T23:05:15.947Z,12.90
2019-04-05T23:07:45.429Z,12.90
2019-04-05T23:10:14.940Z,12.80
2019-04-05T23:12:44.431Z,12.90
2019-04-05T23:15:14.006Z,12.90
2019-04-05T23:17:43.440Z,12.90
2019-04-05T23:20:13.235Z,12.80
2019-04-05T23:22:42.685Z,12.80
2019-04-05T23:25:21.479Z,12.80
2019-04-05T23:27:43.481Z,12.80
2019-04-05T23:30:14.395Z,12.90
2019-04-05T23:32:43.831Z,12.90
2019-04-05T23:35:13.567Z,12.90
2019-04-05T23:37:43.026Z,12.80
2019-04-05T23:40:12.962Z,12.90
2019-04-05T23:42:42.393Z,12.90
2019-04-05T23:45:12.330Z,12.80
2019-04-05T23:47:41.829Z,12.80
2019-04-05T23:50:12.885Z,12.80
2019-04-05T23:52:42.467Z,12.80
2019-04-05T23:55:12.018Z,12.80
2019-04-05T23:57:41.526Z,12.80
